sensor_id;sensor_type;location;lat;lon;timestamp;P1;durP1;ratioP1;P2;durP2;ratioP2
22111;SDS011;11222;50.872;4.312;2023-08-24T02:59:33;14.90;;;9.47;;
22111;SDS011;11222;50.872;4.312;2023-08-24T03:35:59;4.70;;;4.30;;
22111;SDS011;11222;50.872;4.312;2023-08-24T05:25:20;20.33;;;12.67;;
22111;SDS011;11222;50.872;4.312;2023-08-24T05:30:12;18.70;;;10.80;;
22111;SDS011;11222;50.872;4.312;2023-08-24T05:32:39;27.17;;;13.60;;
22111;SDS011;11222;50.872;4.312;2023-08-24T05:35:05;20.98;;;14.85;;
22111;SDS011;11222;50.872;4.312;2023-08-24T05:37:31;32.88;;;10.75;;
22111;SDS011;11222;50.872;4.312;2023-08-24T05:39:58;43.33;;;10.98;;
22111;SDS011;11222;50.872;4.312;2023-08-24T05:42:25;72.97;;;13.30;;
22111;SDS011;11222;50.872;4.312;2023-08-24T05:44:50;18.33;;;9.98;;
22111;SDS011;11222;50.872;4.312;2023-08-24T05:47:16;91.32;;;15.30;;
22111;SDS011;11222;50.872;4.312;2023-08-24T05:49:42;14.93;;;10.32;;
22111;SDS011;11222;50.872;4.312;2023-08-24T05:52:07;57.40;;;12.77;;
22111;SDS011;11222;50.872;4.312;2023-08-24T05:54:33;17.23;;;10.00;;
22111;SDS011;11222;50.872;4.312;2023-08-24T05:57:01;43.00;;;8.65;;
22111;SDS011;11222;50.872;4.312;2023-08-24T05:59:27;74.07;;;12.77;;
22111;SDS011;11222;50.872;4.312;2023-08-24T06:01:53;54.67;;;12.10;;
22111;SDS011;11222;50.872;4.312;2023-08-24T06:04:18;46.20;;;11.57;;
22111;SDS011;11222;50.872;4.312;2023-08-24T10:25:59;12.88;;;9.55;;
22111;SDS011;11222;50.872;4.312;2023-08-24T16:29:49;40.00;;;5.63;;
22111;SDS011;11222;50.872;4.312;2023-08-24T16:32:15;28.15;;;5.55;;
22111;SDS011;11222;50.872;4.312;2023-08-24T16:34:41;12.77;;;4.40;;
22111;SDS011;11222;50.872;4.312;2023-08-24T16:37:08;6.75;;;3.55;;
22111;SDS011;11222;50.872;4.312;2023-08-24T16:39:35;6.35;;;3.45;;
22111;SDS011;11222;50.872;4.312;2023-08-24T16:42:02;10.13;;;4.00;;
22111;SDS011;11222;50.872;4.312;2023-08-24T16:44:29;19.98;;;3.90;;
22111;SDS011;11222;50.872;4.312;2023-08-24T16:46:54;6.95;;;3.13;;
22111;SDS011;11222;50.872;4.312;2023-08-24T16:49:20;21.92;;;4.22;;
22111;SDS011;11222;50.872;4.312;2023-08-24T16:51:46;9.93;;;3.05;;
22111;SDS011;11222;50.872;4.312;2023-08-24T16:54:12;7.07;;;3.33;;
22111;SDS011;11222;50.872;4.312;2023-08-24T16:56:39;15.20;;;3.92;;
22111;SDS011;11222;50.872;4.312;2023-08-24T16:59:05;9.60;;;3.97;;
22111;SDS011;11222;50.872;4.312;2023-08-24T17:01:31;8.77;;;3.38;;
22111;SDS011;11222;50.872;4.312;2023-08-24T17:03:57;17.42;;;4.30;;
22111;SDS011;11222;50.872;4.312;2023-08-24T17:06:23;11.65;;;3.80;;
22111;SDS011;11222;50.872;4.312;2023-08-24T17:08:49;27.60;;;4.32;;
22111;SDS011;11222;50.872;4.312;2023-08-24T17:11:14;6.90;;;3.70;;
22111;SDS011;11222;50.872;4.312;2023-08-24T17:13:40;9.63;;;5.00;;
22111;SDS011;11222;50.872;4.312;2023-08-24T17:16:05;9.25;;;3.47;;
22111;SDS011;11222;50.872;4.312;2023-08-24T17:18:32;6.32;;;3.42;;
22111;SDS011;11222;50.872;4.312;2023-08-24T17:20:58;8.65;;;3.50;;
22111;SDS011;11222;50.872;4.312;2023-08-24T17:23:28;9.95;;;3.40;;
22111;SDS011;11222;50.872;4.312;2023-08-24T17:25:54;6.50;;;3.95;;
22111;SDS011;11222;50.872;4.312;2023-08-24T17:28:19;6.53;;;3.80;;
22111;SDS011;11222;50.872;4.312;2023-08-24T17:30:45;11.15;;;4.35;;
22111;SDS011;11222;50.872;4.312;2023-08-24T17:33:12;7.35;;;3.70;;
22111;SDS011;11222;50.872;4.312;2023-08-24T17:35:38;9.63;;;3.72;;
22111;SDS011;11222;50.872;4.312;2023-08-24T17:38:04;11.35;;;3.95;;
22111;SDS011;11222;50.872;4.312;2023-08-24T17:40:29;7.65;;;3.92;;
22111;SDS011;11222;50.872;4.312;2023-08-24T17:42:56;13.65;;;4.72;;
22111;SDS011;11222;50.872;4.312;2023-08-24T17:45:21;8.60;;;4.22;;
22111;SDS011;11222;50.872;4.312;2023-08-24T17:47:48;22.55;;;5.15;;
22111;SDS011;11222;50.872;4.312;2023-08-24T17:50:17;13.48;;;4.10;;
22111;SDS011;11222;50.872;4.312;2023-08-24T17:52:43;14.52;;;4.72;;
22111;SDS011;11222;50.872;4.312;2023-08-24T17:55:09;11.10;;;4.32;;
22111;SDS011;11222;50.872;4.312;2023-08-24T17:57:35;9.30;;;4.05;;
22111;SDS011;11222;50.872;4.312;2023-08-24T18:00:01;5.68;;;3.80;;
22111;SDS011;11222;50.872;4.312;2023-08-24T18:02:30;4.10;;;3.70;;
22111;SDS011;11222;50.872;4.312;2023-08-24T18:04:55;6.07;;;4.00;;
22111;SDS011;11222;50.872;4.312;2023-08-24T18:07:21;17.63;;;4.50;;
22111;SDS011;11222;50.872;4.312;2023-08-24T18:09:47;8.20;;;4.00;;
22111;SDS011;11222;50.872;4.312;2023-08-24T18:12:12;10.25;;;5.13;;
22111;SDS011;11222;50.872;4.312;2023-08-24T18:14:38;11.52;;;4.25;;
22111;SDS011;11222;50.872;4.312;2023-08-24T18:17:04;13.00;;;4.20;;
22111;SDS011;11222;50.872;4.312;2023-08-24T18:19:30;11.70;;;4.80;;
22111;SDS011;11222;50.872;4.312;2023-08-24T18:21:55;11.52;;;4.68;;
22111;SDS011;11222;50.872;4.312;2023-08-24T18:24:21;6.95;;;4.07;;
22111;SDS011;11222;50.872;4.312;2023-08-24T18:26:47;25.05;;;6.22;;
22111;SDS011;11222;50.872;4.312;2023-08-24T18:29:12;9.32;;;5.65;;
22111;SDS011;11222;50.872;4.312;2023-08-24T18:31:39;10.55;;;4.65;;
22111;SDS011;11222;50.872;4.312;2023-08-24T18:34:05;8.35;;;4.53;;
22111;SDS011;11222;50.872;4.312;2023-08-24T18:36:31;5.55;;;4.63;;
22111;SDS011;11222;50.872;4.312;2023-08-24T18:38:57;18.13;;;6.20;;
22111;SDS011;11222;50.872;4.312;2023-08-24T18:41:23;7.20;;;5.00;;
22111;SDS011;11222;50.872;4.312;2023-08-24T18:43:48;9.50;;;4.97;;
22111;SDS011;11222;50.872;4.312;2023-08-24T18:46:14;6.03;;;5.18;;
22111;SDS011;11222;50.872;4.312;2023-08-24T18:48:40;33.65;;;7.78;;
22111;SDS011;11222;50.872;4.312;2023-08-24T18:51:06;13.88;;;5.20;;
22111;SDS011;11222;50.872;4.312;2023-08-24T18:53:31;9.48;;;5.50;;
22111;SDS011;11222;50.872;4.312;2023-08-24T18:55:58;9.15;;;7.57;;
22111;SDS011;11222;50.872;4.312;2023-08-24T18:58:25;13.05;;;7.75;;
22111;SDS011;11222;50.872;4.312;2023-08-24T19:01:00;12.48;;;7.78;;
22111;SDS011;11222;50.872;4.312;2023-08-24T19:03:28;12.00;;;7.28;;
22111;SDS011;11222;50.872;4.312;2023-08-24T19:05:55;16.20;;;6.85;;
22111;SDS011;11222;50.872;4.312;2023-08-24T19:08:21;16.55;;;6.80;;
22111;SDS011;11222;50.872;4.312;2023-08-24T19:10:47;13.80;;;7.22;;
22111;SDS011;11222;50.872;4.312;2023-08-24T19:13:13;21.23;;;7.47;;
22111;SDS011;11222;50.872;4.312;2023-08-24T19:15:40;20.95;;;7.03;;
22111;SDS011;11222;50.872;4.312;2023-08-24T19:18:05;24.08;;;7.47;;
22111;SDS011;11222;50.872;4.312;2023-08-24T19:20:32;13.50;;;6.68;;
22111;SDS011;11222;50.872;4.312;2023-08-24T19:22:57;10.95;;;6.85;;
22111;SDS011;11222;50.872;4.312;2023-08-24T19:25:23;10.70;;;7.50;;
22111;SDS011;11222;50.872;4.312;2023-08-24T19:27:49;18.85;;;7.47;;
22111;SDS011;11222;50.872;4.312;2023-08-24T19:30:15;20.88;;;8.00;;
22111;SDS011;11222;50.872;4.312;2023-08-24T19:32:40;13.65;;;7.00;;
22111;SDS011;11222;50.872;4.312;2023-08-24T19:35:06;22.55;;;8.93;;
22111;SDS011;11222;50.872;4.312;2023-08-24T19:37:32;13.88;;;7.25;;
22111;SDS011;11222;50.872;4.312;2023-08-24T19:39:57;12.73;;;7.40;;
22111;SDS011;11222;50.872;4.312;2023-08-24T19:42:23;10.77;;;7.35;;
22111;SDS011;11222;50.872;4.312;2023-08-24T19:44:50;14.45;;;7.43;;
22111;SDS011;11222;50.872;4.312;2023-08-24T19:47:16;22.92;;;8.10;;
22111;SDS011;11222;50.872;4.312;2023-08-24T19:49:42;33.17;;;10.83;;
22111;SDS011;11222;50.872;4.312;2023-08-24T19:52:08;13.15;;;7.70;;
22111;SDS011;11222;50.872;4.312;2023-08-24T19:54:34;14.95;;;7.40;;
22111;SDS011;11222;50.872;4.312;2023-08-24T19:57:00;13.13;;;6.82;;
22111;SDS011;11222;50.872;4.312;2023-08-24T19:59:25;14.32;;;7.22;;
22111;SDS011;11222;50.872;4.312;2023-08-24T20:01:51;11.80;;;7.40;;
22111;SDS011;11222;50.872;4.312;2023-08-24T20:04:17;28.88;;;8.15;;
22111;SDS011;11222;50.872;4.312;2023-08-24T20:06:43;14.65;;;7.50;;
22111;SDS011;11222;50.872;4.312;2023-08-24T20:09:09;23.90;;;7.70;;
22111;SDS011;11222;50.872;4.312;2023-08-24T20:11:37;12.90;;;7.35;;
22111;SDS011;11222;50.872;4.312;2023-08-24T20:14:03;13.18;;;8.02;;
22111;SDS011;11222;50.872;4.312;2023-08-24T20:16:29;10.65;;;7.75;;
22111;SDS011;11222;50.872;4.312;2023-08-24T20:18:55;10.57;;;6.65;;
22111;SDS011;11222;50.872;4.312;2023-08-24T20:21:21;20.67;;;8.48;;
22111;SDS011;11222;50.872;4.312;2023-08-24T20:23:49;22.35;;;9.10;;
22111;SDS011;11222;50.872;4.312;2023-08-24T20:26:14;13.60;;;8.77;;
22111;SDS011;11222;50.872;4.312;2023-08-24T20:28:41;10.55;;;6.70;;
22111;SDS011;11222;50.872;4.312;2023-08-24T20:31:07;11.15;;;7.28;;
22111;SDS011;11222;50.872;4.312;2023-08-24T20:33:33;12.98;;;6.78;;
22111;SDS011;11222;50.872;4.312;2023-08-24T20:35:59;15.48;;;8.85;;
22111;SDS011;11222;50.872;4.312;2023-08-24T20:38:25;18.30;;;12.88;;
22111;SDS011;11222;50.872;4.312;2023-08-24T20:40:52;13.65;;;7.38;;
22111;SDS011;11222;50.872;4.312;2023-08-24T20:43:18;9.68;;;7.15;;
22111;SDS011;11222;50.872;4.312;2023-08-24T20:45:46;12.48;;;7.78;;
22111;SDS011;11222;50.872;4.312;2023-08-24T20:48:12;15.95;;;7.53;;
22111;SDS011;11222;50.872;4.312;2023-08-24T20:50:38;10.52;;;7.45;;
22111;SDS011;11222;50.872;4.312;2023-08-24T20:53:03;11.32;;;6.80;;
22111;SDS011;11222;50.872;4.312;2023-08-24T20:55:32;9.00;;;6.18;;
22111;SDS011;11222;50.872;4.312;2023-08-24T20:57:58;9.20;;;5.65;;
22111;SDS011;11222;50.872;4.312;2023-08-24T21:00:24;10.35;;;5.95;;
22111;SDS011;11222;50.872;4.312;2023-08-24T21:02:50;10.60;;;6.15;;
22111;SDS011;11222;50.872;4.312;2023-08-24T21:05:16;7.00;;;5.80;;
22111;SDS011;11222;50.872;4.312;2023-08-24T21:07:42;8.80;;;6.05;;
22111;SDS011;11222;50.872;4.312;2023-08-24T21:10:08;11.60;;;5.72;;
22111;SDS011;11222;50.872;4.312;2023-08-24T21:12:33;5.50;;;4.97;;
22111;SDS011;11222;50.872;4.312;2023-08-24T21:14:59;10.00;;;6.07;;
22111;SDS011;11222;50.872;4.312;2023-08-24T21:17:25;8.82;;;6.65;;
22111;SDS011;11222;50.872;4.312;2023-08-24T21:19:51;5.60;;;5.10;;
22111;SDS011;11222;50.872;4.312;2023-08-24T21:22:17;11.00;;;5.90;;
22111;SDS011;11222;50.872;4.312;2023-08-24T21:24:43;9.38;;;6.30;;
22111;SDS011;11222;50.872;4.312;2023-08-24T21:27:09;7.95;;;6.40;;
22111;SDS011;11222;50.872;4.312;2023-08-24T21:29:35;9.70;;;6.78;;
22111;SDS011;11222;50.872;4.312;2023-08-24T21:32:04;9.43;;;6.90;;
22111;SDS011;11222;50.872;4.312;2023-08-24T21:34:30;10.18;;;6.85;;
22111;SDS011;11222;50.872;4.312;2023-08-24T21:36:56;19.75;;;7.78;;
22111;SDS011;11222;50.872;4.312;2023-08-24T21:39:22;12.05;;;6.25;;
22111;SDS011;11222;50.872;4.312;2023-08-24T21:41:48;25.20;;;5.50;;
22111;SDS011;11222;50.872;4.312;2023-08-24T21:46:39;10.00;;;8.10;;
22111;SDS011;11222;50.872;4.312;2023-08-24T21:49:05;11.32;;;8.20;;
22111;SDS011;11222;50.872;4.312;2023-08-24T21:51:33;12.35;;;7.85;;
22111;SDS011;11222;50.872;4.312;2023-08-24T21:53:59;13.18;;;8.38;;
22111;SDS011;11222;50.872;4.312;2023-08-24T21:56:24;11.25;;;8.50;;
22111;SDS011;11222;50.872;4.312;2023-08-24T21:58:50;14.77;;;8.35;;
22111;SDS011;11222;50.872;4.312;2023-08-24T22:01:16;11.80;;;8.73;;
22111;SDS011;11222;50.872;4.312;2023-08-24T22:03:42;10.00;;;8.30;;
22111;SDS011;11222;50.872;4.312;2023-08-24T22:06:08;9.13;;;7.63;;
22111;SDS011;11222;50.872;4.312;2023-08-24T22:08:34;9.15;;;8.20;;
22111;SDS011;11222;50.872;4.312;2023-08-24T22:11:01;12.55;;;8.55;;
22111;SDS011;11222;50.872;4.312;2023-08-24T22:13:27;12.45;;;9.75;;
22111;SDS011;11222;50.872;4.312;2023-08-24T22:15:53;10.27;;;8.20;;
22111;SDS011;11222;50.872;4.312;2023-08-24T22:18:19;14.75;;;8.98;;
22111;SDS011;11222;50.872;4.312;2023-08-24T22:20:46;27.80;;;9.95;;
22111;SDS011;11222;50.872;4.312;2023-08-24T22:23:11;12.85;;;8.85;;
22111;SDS011;11222;50.872;4.312;2023-08-24T22:25:38;10.68;;;8.32;;
22111;SDS011;11222;50.872;4.312;2023-08-24T22:28:04;15.25;;;9.00;;
22111;SDS011;11222;50.872;4.312;2023-08-24T22:30:31;10.23;;;9.02;;
22111;SDS011;11222;50.872;4.312;2023-08-24T22:32:57;11.55;;;8.65;;
22111;SDS011;11222;50.872;4.312;2023-08-24T22:35:23;11.90;;;8.77;;
22111;SDS011;11222;50.872;4.312;2023-08-24T22:37:49;11.27;;;9.10;;
22111;SDS011;11222;50.872;4.312;2023-08-24T22:40:14;12.98;;;8.50;;
22111;SDS011;11222;50.872;4.312;2023-08-24T22:42:40;12.57;;;7.95;;
22111;SDS011;11222;50.872;4.312;2023-08-24T22:45:06;9.52;;;8.20;;
22111;SDS011;11222;50.872;4.312;2023-08-24T22:47:33;22.52;;;8.88;;
22111;SDS011;11222;50.872;4.312;2023-08-24T22:50:03;11.05;;;8.23;;
22111;SDS011;11222;50.872;4.312;2023-08-24T22:52:34;13.35;;;8.88;;
22111;SDS011;11222;50.872;4.312;2023-08-24T22:55:01;12.38;;;8.50;;
22111;SDS011;11222;50.872;4.312;2023-08-24T22:57:29;10.60;;;8.70;;
22111;SDS011;11222;50.872;4.312;2023-08-24T22:59:58;14.75;;;11.07;;
22111;SDS011;11222;50.872;4.312;2023-08-24T23:02:25;14.05;;;9.90;;
22111;SDS011;11222;50.872;4.312;2023-08-24T23:04:51;12.77;;;8.80;;
22111;SDS011;11222;50.872;4.312;2023-08-24T23:07:17;14.73;;;8.90;;
22111;SDS011;11222;50.872;4.312;2023-08-24T23:09:44;11.68;;;8.23;;
22111;SDS011;11222;50.872;4.312;2023-08-24T23:12:10;11.10;;;8.85;;
22111;SDS011;11222;50.872;4.312;2023-08-24T23:14:37;13.88;;;8.80;;
22111;SDS011;11222;50.872;4.312;2023-08-24T23:17:03;10.32;;;8.73;;
22111;SDS011;11222;50.872;4.312;2023-08-24T23:19:30;11.93;;;8.63;;
22111;SDS011;11222;50.872;4.312;2023-08-24T23:21:59;10.95;;;9.55;;
22111;SDS011;11222;50.872;4.312;2023-08-24T23:24:24;8.75;;;7.82;;
22111;SDS011;11222;50.872;4.312;2023-08-24T23:26:50;10.77;;;8.50;;
22111;SDS011;11222;50.872;4.312;2023-08-24T23:29:16;8.47;;;6.33;;
22111;SDS011;11222;50.872;4.312;2023-08-24T23:31:41;10.10;;;8.30;;
22111;SDS011;11222;50.872;4.312;2023-08-24T23:34:07;10.02;;;8.15;;
22111;SDS011;11222;50.872;4.312;2023-08-24T23:36:33;15.20;;;8.10;;
22111;SDS011;11222;50.872;4.312;2023-08-24T23:38:59;13.80;;;8.75;;
22111;SDS011;11222;50.872;4.312;2023-08-24T23:41:25;10.45;;;8.43;;
22111;SDS011;11222;50.872;4.312;2023-08-24T23:43:51;13.23;;;8.20;;
22111;SDS011;11222;50.872;4.312;2023-08-24T23:46:16;9.03;;;7.80;;
22111;SDS011;11222;50.872;4.312;2023-08-24T23:48:42;11.82;;;8.35;;
22111;SDS011;11222;50.872;4.312;2023-08-24T23:51:07;15.27;;;8.25;;
22111;SDS011;11222;50.872;4.312;2023-08-24T23:53:33;9.48;;;7.80;;
22111;SDS011;11222;50.872;4.312;2023-08-24T23:55:59;16.73;;;8.35;;
22111;SDS011;11222;50.872;4.312;2023-08-24T23:58:25;14.52;;;7.88;;
